Time;durP1;ratioP1;P1;durP2;ratioP2;P2;SDS_P1;SDS_P2;PMS_P1;PMS_P2;Temp;Humidity;BMP_temperature;BMP_pressure;BME280_temperature;BME280_humidity;BME280_pressure;Samples;Min_cycle;Max_cycle;Signal;HPM_P1;HPM_P2
2021/03/16 00:02:19;;;;;;;19.37;5.67;;;4.30;99.90;;;;;;4979100;28;20519;-91
2021/03/16 00:04:46;;;;;;;17.27;5.60;;;4.40;99.90;;;;;;4991523;28;20524;-91
2021/03/16 00:07:15;;;;;;;16.40;6.13;;;4.30;99.90;;;;;;4985245;28;20470;-91
2021/03/16 00:09:42;;;;;;;20.10;5.90;;;4.30;99.90;;;;;;4994733;28;20469;-91
2021/03/16 00:12:10;;;;;;;21.57;7.93;;;4.30;99.90;;;;;;4998885;28;20954;-91
2021/03/16 00:14:39;;;;;;;23.87;5.80;;;4.40;99.90;;;;;;4987928;28;20469;-91
2021/03/16 00:17:07;;;;;;;17.37;5.57;;;4.30;99.90;;;;;;4979422;28;20477;-91
2021/03/16 00:19:35;;;;;;;23.83;6.83;;;4.30;99.90;;;;;;4991470;28;20528;-91
2021/03/16 00:22:02;;;;;;;22.30;5.47;;;4.30;99.90;;;;;;4998841;28;20584;-92
2021/03/16 00:24:32;;;;;;;12.97;6.63;;;4.30;99.90;;;;;;4997665;28;20496;-91
2021/03/16 00:27:00;;;;;;;19.10;6.13;;;4.30;99.90;;;;;;4997927;28;20527;-91
2021/03/16 00:29:28;;;;;;;18.27;5.63;;;4.20;99.90;;;;;;4997501;28;20531;-91
2021/03/16 00:31:56;;;;;;;24.63;5.77;;;4.20;99.90;;;;;;4996217;28;20762;-91
2021/03/16 00:34:24;;;;;;;17.53;5.60;;;4.20;99.90;;;;;;4979056;28;20474;-91
2021/03/16 00:36:54;;;;;;;18.73;5.33;;;4.20;99.90;;;;;;4983694;28;20472;-91
2021/03/16 00:39:34;;;;;;;18.33;6.10;;;4.10;99.90;;;;;;4980225;28;20512;-91
2021/03/16 00:42:04;;;;;;;11.43;4.93;;;4.10;99.90;;;;;;4987794;28;20474;-91
2021/03/16 00:44:31;;;;;;;17.30;5.37;;;4.10;99.90;;;;;;4978962;28;20502;-92
2021/03/16 00:47:03;;;;;;;16.60;5.23;;;4.20;99.90;;;;;;4991968;28;20492;-91
2021/03/16 00:49:34;;;;;;;19.50;4.93;;;4.20;99.90;;;;;;4999506;28;20477;-92
2021/03/16 00:52:03;;;;;;;13.67;4.93;;;4.20;99.90;;;;;;4965663;28;20428;-91
2021/03/16 00:54:36;;;;;;;14.90;5.07;;;4.20;99.90;;;;;;4964673;28;20564;-91
2021/03/16 00:57:03;;;;;;;18.10;5.13;;;4.20;99.90;;;;;;5000632;28;20472;-91
2021/03/16 00:59:31;;;;;;;20.87;5.10;;;4.20;99.90;;;;;;5000369;28;20567;-91
2021/03/16 01:01:59;;;;;;;16.87;5.27;;;4.20;99.90;;;;;;4999808;28;20497;-92
2021/03/16 01:04:26;;;;;;;16.90;4.80;;;4.20;99.90;;;;;;4989578;28;20485;-91
2021/03/16 01:06:54;;;;;;;17.53;5.63;;;4.30;99.90;;;;;;5000394;28;20535;-92
2021/03/16 01:09:21;;;;;;;16.90;5.90;;;4.30;99.90;;;;;;4996029;28;20519;-91
2021/03/16 01:11:48;;;;;;;19.53;6.30;;;4.40;99.90;;;;;;5000884;28;20476;-91
2021/03/16 01:14:19;;;;;;;14.37;5.90;;;4.40;99.90;;;;;;4999608;28;20464;-92
2021/03/16 01:16:47;;;;;;;16.63;5.73;;;4.30;99.90;;;;;;5000652;28;20472;-91
2021/03/16 01:19:17;;;;;;;19.83;5.93;;;4.40;99.90;;;;;;4983242;28;20490;-91
2021/03/16 01:21:44;;;;;;;16.63;6.27;;;4.30;99.90;;;;;;4991293;28;20489;-91
2021/03/16 01:24:12;;;;;;;16.60;5.53;;;4.40;99.90;;;;;;5000822;28;20493;-91
2021/03/16 01:26:39;;;;;;;21.50;4.60;;;4.40;99.90;;;;;;4999562;28;20483;-91
2021/03/16 01:29:06;;;;;;;12.47;5.17;;;4.30;99.90;;;;;;5000335;28;20536;-91
2021/03/16 01:31:32;;;;;;;10.00;4.20;;;4.40;99.90;;;;;;4999659;28;20559;-91
2021/03/16 01:34:00;;;;;;;15.60;4.70;;;4.40;99.90;;;;;;5000231;28;20473;-91
2021/03/16 01:36:27;;;;;;;23.40;4.53;;;4.40;99.90;;;;;;4990769;28;20473;-92
2021/03/16 01:38:57;;;;;;;22.13;4.77;;;4.40;99.90;;;;;;4984959;28;20465;-91
2021/03/16 01:41:26;;;;;;;20.60;4.47;;;4.30;99.90;;;;;;4983034;28;20466;-91
2021/03/16 01:43:53;;;;;;;13.00;4.30;;;4.40;99.90;;;;;;4998418;28;20489;-91
2021/03/16 01:46:20;;;;;;;14.83;4.40;;;4.40;99.90;;;;;;4996206;28;20461;-91
2021/03/16 01:48:48;;;;;;;13.57;4.07;;;4.30;99.90;;;;;;4980329;28;20500;-92
2021/03/16 01:51:16;;;;;;;15.47;3.87;;;4.30;1.00;;;;;;4997974;28;20575;-91
2021/03/16 01:53:43;;;;;;;10.33;4.27;;;4.30;1.00;;;;;;4998362;28;20469;-92
2021/03/16 01:56:14;;;;;;;14.77;4.60;;;4.30;1.00;;;;;;4993633;28;20479;-91
2021/03/16 01:58:45;;;;;;;19.27;4.50;;;4.40;1.00;;;;;;4999053;28;20766;-92
2021/03/16 02:01:13;;;;;;;17.77;5.00;;;4.30;99.90;;;;;;4999860;28;20866;-91
2021/03/16 02:03:40;;;;;;;17.13;4.80;;;4.30;99.90;;;;;;4997642;28;20497;-92
2021/03/16 02:06:13;;;;;;;13.90;4.70;;;4.30;99.90;;;;;;4994173;28;20903;-92
2021/03/16 02:08:55;;;;;;;23.10;4.93;;;4.40;99.90;;;;;;4991622;28;20519;-92
2021/03/16 02:11:41;;;;;;;16.70;4.80;;;4.30;99.90;;;;;;5000227;28;20769;-92
2021/03/16 02:14:20;;;;;;;11.67;4.10;;;4.30;99.90;;;;;;4983036;28;20461;-91
2021/03/16 02:16:56;;;;;;;13.50;4.53;;;4.30;99.90;;;;;;4999087;28;20443;-91
2021/03/16 02:19:44;;;;;;;12.50;4.90;;;4.20;99.90;;;;;;4999998;28;20451;-92
2021/03/16 02:22:11;;;;;;;15.47;5.97;;;4.20;99.90;;;;;;4989650;28;20489;-91
2021/03/16 02:25:15;;;;;;;16.47;4.53;;;4.20;99.90;;;;;;4980550;28;20548;-92
2021/03/16 02:27:58;;;;;;;17.83;4.60;;;4.20;73.50;;;;;;4981259;28;20474;-92
2021/03/16 02:30:31;;;;;;;12.57;3.80;;;4.20;99.80;;;;;;4984107;28;20859;-92
2021/03/16 02:33:05;;;;;;;15.67;4.30;;;4.10;1.00;;;;;;5000514;28;20476;-92
2021/03/16 02:35:37;;;;;;;16.00;4.33;;;4.10;1.00;;;;;;4975162;28;20866;-92
2021/03/16 02:38:08;;;;;;;11.10;4.37;;;4.20;1.00;;;;;;4980539;28;20457;-92
2021/03/16 02:40:40;;;;;;;13.40;4.10;;;4.10;4.60;;;;;;4984624;28;20477;-92
2021/03/16 02:43:13;;;;;;;12.97;3.60;;;4.20;1.00;;;;;;4986400;28;20496;-92
2021/03/16 02:46:00;;;;;;;12.20;3.53;;;4.10;99.90;;;;;;4962736;28;20561;-92
2021/03/16 02:48:32;;;;;;;8.27;4.07;;;4.10;1.00;;;;;;4982639;28;20468;-92
2021/03/16 02:51:07;;;;;;;9.50;3.77;;;4.10;1.00;;;;;;4983068;28;20460;-92
2021/03/16 02:56:18;;;;;;;21.60;5.83;;;4.10;99.90;;;;;;4978955;28;20446;-92
2021/03/16 02:58:50;;;;;;;21.87;4.23;;;4.10;1.00;;;;;;4976934;28;20454;-92
2021/03/16 03:01:24;;;;;;;12.07;3.87;;;4.10;99.90;;;;;;4979627;28;20487;-92
2021/03/16 03:04:01;;;;;;;11.90;3.60;;;4.10;1.00;;;;;;4982087;28;21045;-92
2021/03/16 03:06:31;;;;;;;18.87;4.73;;;4.10;1.00;;;;;;4998145;28;20457;-92
2021/03/16 03:11:43;;;;;;;13.77;4.33;;;4.20;1.00;;;;;;4983736;28;20485;-92
2021/03/16 03:14:15;;;;;;;16.20;5.13;;;4.20;99.90;;;;;;4982111;28;20515;-92
2021/03/16 03:22:53;;;;;;;15.43;4.70;;;4.30;1.00;;;;;;4988051;28;20441;-92
2021/03/16 03:25:33;;;;;;;13.00;4.17;;;4.30;99.90;;;;;;4966801;28;20477;-92
2021/03/16 03:28:18;;;;;;;17.97;4.70;;;4.30;99.90;;;;;;4967124;28;20473;-92
2021/03/16 03:30:53;;;;;;;13.40;4.33;;;4.30;1.00;;;;;;4984577;28;20465;-92
2021/03/16 03:36:13;;;;;;;19.43;4.47;;;4.30;1.00;;;;;;4983118;28;20782;-92
2021/03/16 03:41:33;;;;;;;19.03;4.60;;;4.30;1.00;;;;;;4998362;28;20487;-92
2021/03/16 06:37:24;;;;;;;9.17;4.07;;;4.60;1.00;;;;;;4936416;29;20781;-92
2021/03/16 06:40:02;;;;;;;12.90;4.53;;;4.50;99.90;;;;;;4942264;29;20947;-92
2021/03/16 06:42:32;;;;;;;17.43;4.00;;;4.50;99.90;;;;;;4940952;29;20841;-92
2021/03/16 06:47:46;;;;;;;12.17;4.60;;;4.60;1.00;;;;;;4923200;29;20459;-92
2021/03/16 06:50:30;;;;;;;15.07;4.73;;;4.60;99.90;;;;;;4923681;29;20455;-92
2021/03/16 11:19:20;;;;;;;10.97;5.90;;;8.90;1.00;;;;;;669744;23;21995;-86
2021/03/16 11:21:56;;;;;;;7.37;5.50;;;8.80;1.00;;;;;;4963794;28;20474;-92
2021/03/16 11:24:25;;;;;;;11.30;6.50;;;8.90;1.00;;;;;;4950897;29;21050;-92
2021/03/16 11:26:56;;;;;;;14.37;8.67;;;8.20;1.00;;;;;;4960168;29;20779;-91
2021/03/16 11:32:08;;;;;;;19.07;13.97;;;7.60;1.00;;;;;;4947887;29;20462;-91
2021/03/16 11:34:39;;;;;;;25.53;13.43;;;7.40;1.00;;;;;;4941464;29;20463;-91
2021/03/16 11:37:06;;;;;;;20.50;12.83;;;7.30;1.00;;;;;;4941170;29;20468;-91
2021/03/16 11:39:34;;;;;;;15.93;11.30;;;7.20;1.00;;;;;;4942389;29;20472;-92
2021/03/16 11:42:00;;;;;;;19.30;11.50;;;7.30;1.00;;;;;;4944610;29;20467;-91
2021/03/16 11:44:28;;;;;;;12.43;10.13;;;7.40;1.00;;;;;;4946084;29;20491;-92
2021/03/16 11:49:55;;;;;;;15.17;9.20;;;7.70;1.00;;;;;;4945990;29;20909;-92
2021/03/16 11:52:30;;;;;;;15.97;10.87;;;8.10;1.00;;;;;;4945455;29;20856;-92
2021/03/16 11:55:22;;;;;;;13.13;9.00;;;8.30;1.00;;;;;;4946178;29;20525;-92
2021/03/16 14:02:16;;;;;;;2.87;2.30;;;7.60;1.00;;;;;;4977525;28;20462;-92
2021/03/16 15:53:36;;;;;;;12.67;3.20;;;7.80;1.00;;;;;;669429;23;22132;-81
2021/03/16 15:58:52;;;;;;;9.20;3.43;;;8.00;1.00;;;;;;4978300;28;20460;-92
2021/03/16 16:01:20;;;;;;;6.97;3.63;;;8.00;1.00;;;;;;4980532;28;20497;-92
2021/03/16 19:37:02;;;;;;;10.60;9.50;;;4.80;99.30;;;;;;669771;23;22011;31
2021/03/16 19:42:11;;;;;;;9.90;8.90;;;4.80;99.90;;;;;;4981881;28;20477;-92
2021/03/16 19:44:38;;;;;;;10.90;9.80;;;4.80;99.90;;;;;;4996794;28;20468;-92
2021/03/16 19:47:08;;;;;;;11.43;9.37;;;4.70;99.90;;;;;;4983315;28;20559;-92
2021/03/16 19:49:35;;;;;;;14.70;10.57;;;4.70;99.90;;;;;;4990502;28;20503;-92
2021/03/16 19:52:02;;;;;;;14.83;9.83;;;4.80;99.90;;;;;;4996959;28;20459;-92
2021/03/16 19:54:29;;;;;;;11.60;10.40;;;4.80;99.90;;;;;;4996708;28;20487;-92
2021/03/16 19:56:56;;;;;;;18.63;13.37;;;4.80;99.90;;;;;;4996020;28;20907;-92
2021/03/16 19:59:23;;;;;;;15.00;11.57;;;4.80;99.90;;;;;;4997601;28;20469;-92
2021/03/16 20:02:03;;;;;;;14.20;12.17;;;4.80;99.90;;;;;;4985611;28;20567;-92
2021/03/16 20:04:31;;;;;;;13.73;11.83;;;4.70;99.90;;;;;;4995797;28;20752;-92
2021/03/16 20:07:01;;;;;;;12.30;11.00;;;4.80;99.90;;;;;;5000118;28;20583;-92
2021/03/16 20:09:29;;;;;;;14.13;12.30;;;4.80;99.90;;;;;;5000689;28;20581;-92
2021/03/16 20:11:58;;;;;;;13.27;10.60;;;4.90;99.90;;;;;;5000648;28;20523;-92
2021/03/16 20:14:24;;;;;;;15.63;11.17;;;4.90;99.90;;;;;;4999544;28;20465;-92
2021/03/16 20:16:55;;;;;;;13.00;11.63;;;4.80;99.90;;;;;;5000046;28;20892;-92
2021/03/16 20:19:27;;;;;;;13.63;12.17;;;4.70;99.90;;;;;;4999971;28;20512;-92
